sensor_id;sensor_type;location;lat;lon;timestamp;temperature;humidity
67141;DHT22;54058;52.010;5.546;2023-05-14T00:01:13;14.50;63.30
67141;DHT22;54058;52.010;5.546;2023-05-14T00:03:39;14.50;63.30
67141;DHT22;54058;52.010;5.546;2023-05-14T00:06:05;14.40;63.40
67141;DHT22;54058;52.010;5.546;2023-05-14T00:08:32;14.40;63.70
67141;DHT22;54058;52.010;5.546;2023-05-14T00:10:57;14.30;63.50
67141;DHT22;54058;52.010;5.546;2023-05-14T00:13:24;14.30;64.00
67141;DHT22;54058;52.010;5.546;2023-05-14T00:15:50;14.30;64.20
67141;DHT22;54058;52.010;5.546;2023-05-14T00:18:15;14.20;64.60
67141;DHT22;54058;52.010;5.546;2023-05-14T00:20:41;14.20;64.90
67141;DHT22;54058;52.010;5.546;2023-05-14T00:23:06;14.10;64.60
67141;DHT22;54058;52.010;5.546;2023-05-14T00:25:32;14.10;64.70
67141;DHT22;54058;52.010;5.546;2023-05-14T00:27:58;14.10;64.70
67141;DHT22;54058;52.010;5.546;2023-05-14T00:30:23;14.10;64.50
67141;DHT22;54058;52.010;5.546;2023-05-14T00:32:49;14.20;64.30
67141;DHT22;54058;52.010;5.546;2023-05-14T00:35:15;14.10;64.20
67141;DHT22;54058;52.010;5.546;2023-05-14T00:37:41;14.10;64.80
67141;DHT22;54058;52.010;5.546;2023-05-14T00:40:07;14.10;64.80
67141;DHT22;54058;52.010;5.546;2023-05-14T00:42:33;14.10;64.80
67141;DHT22;54058;52.010;5.546;2023-05-14T00:44:58;14.10;64.90
67141;DHT22;54058;52.010;5.546;2023-05-14T00:47:24;14.10;65.00
67141;DHT22;54058;52.010;5.546;2023-05-14T00:49:50;14.00;65.10
67141;DHT22;54058;52.010;5.546;2023-05-14T00:52:17;14.00;65.20
67141;DHT22;54058;52.010;5.546;2023-05-14T00:54:44;14.00;65.20
67141;DHT22;54058;52.010;5.546;2023-05-14T00:57:11;14.00;65.30
67141;DHT22;54058;52.010;5.546;2023-05-14T00:59:37;14.00;65.30
67141;DHT22;54058;52.010;5.546;2023-05-14T01:02:05;14.00;65.50
67141;DHT22;54058;52.010;5.546;2023-05-14T01:04:30;14.00;65.70
67141;DHT22;54058;52.010;5.546;2023-05-14T01:09:58;14.00;67.60
67141;DHT22;54058;52.010;5.546;2023-05-14T01:13:03;14.00;66.20
67141;DHT22;54058;52.010;5.546;2023-05-14T01:15:30;14.00;66.50
67141;DHT22;54058;52.010;5.546;2023-05-14T01:18:06;14.00;66.10
67141;DHT22;54058;52.010;5.546;2023-05-14T01:20:33;13.90;66.00
67141;DHT22;54058;52.010;5.546;2023-05-14T01:22:58;13.90;65.70
67141;DHT22;54058;52.010;5.546;2023-05-14T01:25:25;13.90;65.80
67141;DHT22;54058;52.010;5.546;2023-05-14T01:28:00;13.90;65.80
67141;DHT22;54058;52.010;5.546;2023-05-14T01:30:35;13.90;65.70
67141;DHT22;54058;52.010;5.546;2023-05-14T01:33:05;13.90;66.30
67141;DHT22;54058;52.010;5.546;2023-05-14T01:35:31;13.80;66.20
67141;DHT22;54058;52.010;5.546;2023-05-14T01:38:02;13.60;66.40
67141;DHT22;54058;52.010;5.546;2023-05-14T01:40:30;13.60;66.90
67141;DHT22;54058;52.010;5.546;2023-05-14T01:42:57;13.60;66.70
67141;DHT22;54058;52.010;5.546;2023-05-14T01:45:23;13.50;66.80
67141;DHT22;54058;52.010;5.546;2023-05-14T01:47:49;13.60;66.70
67141;DHT22;54058;52.010;5.546;2023-05-14T01:50:15;13.50;66.60
67141;DHT22;54058;52.010;5.546;2023-05-14T01:52:41;13.50;66.80
67141;DHT22;54058;52.010;5.546;2023-05-14T01:55:07;13.50;67.00
67141;DHT22;54058;52.010;5.546;2023-05-14T01:57:33;13.40;67.10
67141;DHT22;54058;52.010;5.546;2023-05-14T01:59:58;13.40;67.20
67141;DHT22;54058;52.010;5.546;2023-05-14T02:02:24;13.40;67.20
67141;DHT22;54058;52.010;5.546;2023-05-14T02:04:50;13.30;67.50
67141;DHT22;54058;52.010;5.546;2023-05-14T02:07:15;13.20;67.60
67141;DHT22;54058;52.010;5.546;2023-05-14T02:09:41;13.20;67.60
67141;DHT22;54058;52.010;5.546;2023-05-14T02:12:07;13.20;67.70
67141;DHT22;54058;52.010;5.546;2023-05-14T02:14:33;13.20;67.60
67141;DHT22;54058;52.010;5.546;2023-05-14T02:16:59;13.20;67.50
67141;DHT22;54058;52.010;5.546;2023-05-14T02:19:25;13.20;67.60
67141;DHT22;54058;52.010;5.546;2023-05-14T02:21:50;13.20;67.80
67141;DHT22;54058;52.010;5.546;2023-05-14T02:24:16;13.20;67.80
67141;DHT22;54058;52.010;5.546;2023-05-14T02:26:42;13.10;68.20
67141;DHT22;54058;52.010;5.546;2023-05-14T02:29:07;13.10;68.20
67141;DHT22;54058;52.010;5.546;2023-05-14T02:31:33;13.10;68.20
67141;DHT22;54058;52.010;5.546;2023-05-14T02:34:00;13.10;68.20
67141;DHT22;54058;52.010;5.546;2023-05-14T02:36:26;13.10;68.20
67141;DHT22;54058;52.010;5.546;2023-05-14T02:38:51;13.10;71.80
67141;DHT22;54058;52.010;5.546;2023-05-14T02:41:17;13.10;68.00
67141;DHT22;54058;52.010;5.546;2023-05-14T02:43:43;13.10;68.00
67141;DHT22;54058;52.010;5.546;2023-05-14T02:46:08;13.10;68.00
67141;DHT22;54058;52.010;5.546;2023-05-14T02:48:34;13.10;68.00
67141;DHT22;54058;52.010;5.546;2023-05-14T02:51:01;13.10;68.00
67141;DHT22;54058;52.010;5.546;2023-05-14T02:53:26;13.10;68.00
67141;DHT22;54058;52.010;5.546;2023-05-14T02:55:52;13.10;68.00
67141;DHT22;54058;52.010;5.546;2023-05-14T02:58:17;13.00;68.30
67141;DHT22;54058;52.010;5.546;2023-05-14T03:00:43;12.90;68.50
67141;DHT22;54058;52.010;5.546;2023-05-14T03:03:09;12.90;68.80
67141;DHT22;54058;52.010;5.546;2023-05-14T03:05:34;12.90;68.80
67141;DHT22;54058;52.010;5.546;2023-05-14T03:08:00;12.90;68.80
67141;DHT22;54058;52.010;5.546;2023-05-14T03:10:26;12.90;68.70
67141;DHT22;54058;52.010;5.546;2023-05-14T03:12:51;12.90;68.80
67141;DHT22;54058;52.010;5.546;2023-05-14T03:15:17;12.90;68.80
67141;DHT22;54058;52.010;5.546;2023-05-14T03:17:43;12.80;69.00
67141;DHT22;54058;52.010;5.546;2023-05-14T03:20:08;12.80;69.10
67141;DHT22;54058;52.010;5.546;2023-05-14T03:22:35;12.70;69.30
67141;DHT22;54058;52.010;5.546;2023-05-14T03:25:00;12.70;69.30
67141;DHT22;54058;52.010;5.546;2023-05-14T03:27:26;12.80;69.30
67141;DHT22;54058;52.010;5.546;2023-05-14T03:29:51;12.80;69.20
67141;DHT22;54058;52.010;5.546;2023-05-14T03:32:17;12.80;69.20
67141;DHT22;54058;52.010;5.546;2023-05-14T03:34:43;12.80;69.20
67141;DHT22;54058;52.010;5.546;2023-05-14T03:37:09;12.80;69.30
67141;DHT22;54058;52.010;5.546;2023-05-14T03:39:35;12.80;69.20
67141;DHT22;54058;52.010;5.546;2023-05-14T03:42:01;12.80;69.30
67141;DHT22;54058;52.010;5.546;2023-05-14T03:44:26;12.70;69.40
67141;DHT22;54058;52.010;5.546;2023-05-14T03:46:52;12.70;69.50
67141;DHT22;54058;52.010;5.546;2023-05-14T03:49:18;12.70;69.60
67141;DHT22;54058;52.010;5.546;2023-05-14T03:51:43;12.60;69.60
67141;DHT22;54058;52.010;5.546;2023-05-14T03:54:09;12.60;69.90
67141;DHT22;54058;52.010;5.546;2023-05-14T03:56:35;12.60;69.80
67141;DHT22;54058;52.010;5.546;2023-05-14T03:59:01;12.60;70.00
67141;DHT22;54058;52.010;5.546;2023-05-14T04:01:26;12.60;70.10
67141;DHT22;54058;52.010;5.546;2023-05-14T04:03:52;12.50;70.30
67141;DHT22;54058;52.010;5.546;2023-05-14T04:06:18;12.50;70.40
67141;DHT22;54058;52.010;5.546;2023-05-14T04:08:43;12.40;70.50
67141;DHT22;54058;52.010;5.546;2023-05-14T04:11:09;12.50;70.60
67141;DHT22;54058;52.010;5.546;2023-05-14T04:13:34;12.50;70.60
67141;DHT22;54058;52.010;5.546;2023-05-14T04:16:00;12.60;70.60
67141;DHT22;54058;52.010;5.546;2023-05-14T04:18:26;12.60;70.90
67141;DHT22;54058;52.010;5.546;2023-05-14T04:20:51;12.50;70.80
67141;DHT22;54058;52.010;5.546;2023-05-14T04:23:17;12.60;70.80
67141;DHT22;54058;52.010;5.546;2023-05-14T04:25:42;12.60;71.00
67141;DHT22;54058;52.010;5.546;2023-05-14T04:28:08;12.60;71.20
67141;DHT22;54058;52.010;5.546;2023-05-14T04:30:34;12.80;70.90
67141;DHT22;54058;52.010;5.546;2023-05-14T04:32:59;12.90;70.90
67141;DHT22;54058;52.010;5.546;2023-05-14T04:35:25;13.00;71.00
67141;DHT22;54058;52.010;5.546;2023-05-14T04:37:51;13.10;71.20
67141;DHT22;54058;52.010;5.546;2023-05-14T04:40:16;13.20;71.20
67141;DHT22;54058;52.010;5.546;2023-05-14T04:42:43;13.30;71.40
67141;DHT22;54058;52.010;5.546;2023-05-14T04:45:09;13.40;72.10
67141;DHT22;54058;52.010;5.546;2023-05-14T04:47:35;13.60;71.50
67141;DHT22;54058;52.010;5.546;2023-05-14T04:50:01;13.50;71.80
67141;DHT22;54058;52.010;5.546;2023-05-14T04:52:27;13.40;72.10
67141;DHT22;54058;52.010;5.546;2023-05-14T04:54:52;13.20;72.20
67141;DHT22;54058;52.010;5.546;2023-05-14T04:57:18;13.20;72.60
67141;DHT22;54058;52.010;5.546;2023-05-14T04:59:43;13.10;72.60
67141;DHT22;54058;52.010;5.546;2023-05-14T05:02:09;13.10;72.80
67141;DHT22;54058;52.010;5.546;2023-05-14T05:04:35;13.10;72.80
67141;DHT22;54058;52.010;5.546;2023-05-14T05:07:01;13.00;72.90
67141;DHT22;54058;52.010;5.546;2023-05-14T05:09:26;13.00;73.20
67141;DHT22;54058;52.010;5.546;2023-05-14T05:11:52;12.90;73.70
67141;DHT22;54058;52.010;5.546;2023-05-14T05:14:17;12.90;74.20
67141;DHT22;54058;52.010;5.546;2023-05-14T05:16:43;12.90;74.60
67141;DHT22;54058;52.010;5.546;2023-05-14T05:19:09;12.90;74.30
67141;DHT22;54058;52.010;5.546;2023-05-14T05:21:35;12.90;74.50
67141;DHT22;54058;52.010;5.546;2023-05-14T05:24:00;13.00;74.80
67141;DHT22;54058;52.010;5.546;2023-05-14T05:26:26;13.00;74.70
67141;DHT22;54058;52.010;5.546;2023-05-14T05:28:52;13.10;75.00
67141;DHT22;54058;52.010;5.546;2023-05-14T05:31:18;13.10;74.90
67141;DHT22;54058;52.010;5.546;2023-05-14T05:33:43;13.20;74.80
67141;DHT22;54058;52.010;5.546;2023-05-14T05:36:09;13.20;74.90
67141;DHT22;54058;52.010;5.546;2023-05-14T05:38:35;13.30;74.70
67141;DHT22;54058;52.010;5.546;2023-05-14T05:41:00;13.40;74.80
67141;DHT22;54058;52.010;5.546;2023-05-14T05:43:26;13.40;74.60
67141;DHT22;54058;52.010;5.546;2023-05-14T05:45:53;13.40;75.40
67141;DHT22;54058;52.010;5.546;2023-05-14T05:48:19;13.30;75.40
67141;DHT22;54058;52.010;5.546;2023-05-14T05:50:47;13.30;75.40
67141;DHT22;54058;52.010;5.546;2023-05-14T05:53:13;13.40;75.50
67141;DHT22;54058;52.010;5.546;2023-05-14T05:55:41;13.40;75.20
67141;DHT22;54058;52.010;5.546;2023-05-14T05:58:07;13.40;75.50
67141;DHT22;54058;52.010;5.546;2023-05-14T06:00:32;13.40;75.40
67141;DHT22;54058;52.010;5.546;2023-05-14T06:02:58;13.50;75.70
67141;DHT22;54058;52.010;5.546;2023-05-14T06:05:24;13.60;75.50
67141;DHT22;54058;52.010;5.546;2023-05-14T06:07:50;13.90;75.20
67141;DHT22;54058;52.010;5.546;2023-05-14T06:10:17;14.00;75.20
67141;DHT22;54058;52.010;5.546;2023-05-14T06:12:43;14.20;75.20
67141;DHT22;54058;52.010;5.546;2023-05-14T06:15:09;14.20;75.00
67141;DHT22;54058;52.010;5.546;2023-05-14T06:17:36;14.30;75.60
67141;DHT22;54058;52.010;5.546;2023-05-14T06:20:02;14.40;75.10
67141;DHT22;54058;52.010;5.546;2023-05-14T06:22:30;14.40;75.30
67141;DHT22;54058;52.010;5.546;2023-05-14T06:24:55;14.50;75.40
67141;DHT22;54058;52.010;5.546;2023-05-14T06:27:21;14.60;75.50
67141;DHT22;54058;52.010;5.546;2023-05-14T06:29:46;15.00;75.70
67141;DHT22;54058;52.010;5.546;2023-05-14T06:32:12;15.40;75.40
67141;DHT22;54058;52.010;5.546;2023-05-14T06:34:40;15.40;75.20
67141;DHT22;54058;52.010;5.546;2023-05-14T06:37:07;15.40;75.50
67141;DHT22;54058;52.010;5.546;2023-05-14T06:39:34;15.40;75.70
67141;DHT22;54058;52.010;5.546;2023-05-14T06:41:59;15.70;76.70
67141;DHT22;54058;52.010;5.546;2023-05-14T06:44:25;16.20;75.60
67141;DHT22;54058;52.010;5.546;2023-05-14T06:46:50;16.60;74.90
67141;DHT22;54058;52.010;5.546;2023-05-14T06:49:16;16.50;74.70
67141;DHT22;54058;52.010;5.546;2023-05-14T06:51:42;16.40;74.80
67141;DHT22;54058;52.010;5.546;2023-05-14T06:54:07;16.20;75.50
67141;DHT22;54058;52.010;5.546;2023-05-14T06:56:33;16.00;75.40
67141;DHT22;54058;52.010;5.546;2023-05-14T06:58:59;16.20;75.90
67141;DHT22;54058;52.010;5.546;2023-05-14T07:01:24;16.50;75.80
67141;DHT22;54058;52.010;5.546;2023-05-14T07:03:50;16.80;75.80
67141;DHT22;54058;52.010;5.546;2023-05-14T07:06:16;17.20;75.20
67141;DHT22;54058;52.010;5.546;2023-05-14T07:08:42;17.20;74.70
67141;DHT22;54058;52.010;5.546;2023-05-14T07:11:12;17.10;74.70
67141;DHT22;54058;52.010;5.546;2023-05-14T07:13:38;17.00;74.60
67141;DHT22;54058;52.010;5.546;2023-05-14T07:16:04;17.00;74.40
67141;DHT22;54058;52.010;5.546;2023-05-14T07:18:30;17.10;74.30
67141;DHT22;54058;52.010;5.546;2023-05-14T07:20:56;17.10;73.90
67141;DHT22;54058;52.010;5.546;2023-05-14T07:23:21;16.90;73.90
67141;DHT22;54058;52.010;5.546;2023-05-14T07:25:47;16.80;74.10
67141;DHT22;54058;52.010;5.546;2023-05-14T07:28:12;16.80;74.10
67141;DHT22;54058;52.010;5.546;2023-05-14T07:30:38;16.70;74.00
67141;DHT22;54058;52.010;5.546;2023-05-14T07:33:04;16.60;73.90
67141;DHT22;54058;52.010;5.546;2023-05-14T07:35:29;16.70;73.90
67141;DHT22;54058;52.010;5.546;2023-05-14T07:37:55;16.80;74.00
67141;DHT22;54058;52.010;5.546;2023-05-14T07:40:21;16.90;73.90
67141;DHT22;54058;52.010;5.546;2023-05-14T07:42:46;17.00;73.60
67141;DHT22;54058;52.010;5.546;2023-05-14T07:45:12;17.00;73.60
67141;DHT22;54058;52.010;5.546;2023-05-14T07:47:38;17.00;73.20
67141;DHT22;54058;52.010;5.546;2023-05-14T07:50:05;17.00;73.30
67141;DHT22;54058;52.010;5.546;2023-05-14T07:52:30;17.20;72.90
67141;DHT22;54058;52.010;5.546;2023-05-14T07:54:56;17.20;73.60
67141;DHT22;54058;52.010;5.546;2023-05-14T07:57:21;17.20;73.30
67141;DHT22;54058;52.010;5.546;2023-05-14T07:59:47;17.10;73.20
67141;DHT22;54058;52.010;5.546;2023-05-14T08:02:13;17.10;73.20
67141;DHT22;54058;52.010;5.546;2023-05-14T08:04:40;17.10;72.90
67141;DHT22;54058;52.010;5.546;2023-05-14T08:07:05;17.00;72.80
67141;DHT22;54058;52.010;5.546;2023-05-14T08:09:32;17.00;72.60
67141;DHT22;54058;52.010;5.546;2023-05-14T08:11:58;16.90;72.10
67141;DHT22;54058;52.010;5.546;2023-05-14T08:14:23;16.90;72.80
67141;DHT22;54058;52.010;5.546;2023-05-14T08:16:49;17.10;73.50
67141;DHT22;54058;52.010;5.546;2023-05-14T08:19:15;17.30;73.60
67141;DHT22;54058;52.010;5.546;2023-05-14T08:21:41;17.60;74.20
67141;DHT22;54058;52.010;5.546;2023-05-14T08:24:06;17.80;74.50
67141;DHT22;54058;52.010;5.546;2023-05-14T08:26:32;17.90;75.10
67141;DHT22;54058;52.010;5.546;2023-05-14T08:28:57;18.10;76.00
67141;DHT22;54058;52.010;5.546;2023-05-14T08:31:23;18.20;75.70
67141;DHT22;54058;52.010;5.546;2023-05-14T08:33:49;18.50;76.00
67141;DHT22;54058;52.010;5.546;2023-05-14T08:36:14;18.60;75.80
67141;DHT22;54058;52.010;5.546;2023-05-14T08:38:40;18.80;75.40
67141;DHT22;54058;52.010;5.546;2023-05-14T08:41:07;19.00;74.70
67141;DHT22;54058;52.010;5.546;2023-05-14T08:43:46;19.00;74.50
67141;DHT22;54058;52.010;5.546;2023-05-14T08:46:16;19.10;72.80
67141;DHT22;54058;52.010;5.546;2023-05-14T08:48:44;19.10;73.40
67141;DHT22;54058;52.010;5.546;2023-05-14T08:51:12;19.10;73.20
67141;DHT22;54058;52.010;5.546;2023-05-14T08:53:38;19.40;72.40
67141;DHT22;54058;52.010;5.546;2023-05-14T08:56:06;19.50;71.40
67141;DHT22;54058;52.010;5.546;2023-05-14T08:58:32;19.50;71.00
67141;DHT22;54058;52.010;5.546;2023-05-14T09:00:58;19.60;70.80
67141;DHT22;54058;52.010;5.546;2023-05-14T09:03:24;19.80;70.30
67141;DHT22;54058;52.010;5.546;2023-05-14T09:05:50;19.90;69.40
67141;DHT22;54058;52.010;5.546;2023-05-14T09:08:16;20.10;69.50
67141;DHT22;54058;52.010;5.546;2023-05-14T09:10:42;20.30;69.10
67141;DHT22;54058;52.010;5.546;2023-05-14T09:13:07;20.40;68.20
67141;DHT22;54058;52.010;5.546;2023-05-14T09:15:35;20.40;67.80
67141;DHT22;54058;52.010;5.546;2023-05-14T09:18:04;20.30;64.10
67141;DHT22;54058;52.010;5.546;2023-05-14T09:20:30;20.30;67.60
67141;DHT22;54058;52.010;5.546;2023-05-14T09:22:57;20.10;67.90
67141;DHT22;54058;52.010;5.546;2023-05-14T09:25:30;20.20;67.50
67141;DHT22;54058;52.010;5.546;2023-05-14T09:27:56;20.50;66.70
67141;DHT22;54058;52.010;5.546;2023-05-14T09:30:23;20.70;66.90
67141;DHT22;54058;52.010;5.546;2023-05-14T09:32:52;20.80;66.20
67141;DHT22;54058;52.010;5.546;2023-05-14T09:35:22;20.90;66.10
67141;DHT22;54058;52.010;5.546;2023-05-14T09:37:50;21.00;65.30
67141;DHT22;54058;52.010;5.546;2023-05-14T09:40:18;20.80;65.20
67141;DHT22;54058;52.010;5.546;2023-05-14T09:42:44;20.80;65.10
67141;DHT22;54058;52.010;5.546;2023-05-14T09:45:10;20.70;64.60
67141;DHT22;54058;52.010;5.546;2023-05-14T09:47:37;20.80;65.00
67141;DHT22;54058;52.010;5.546;2023-05-14T09:50:04;20.80;64.50
67141;DHT22;54058;52.010;5.546;2023-05-14T09:52:30;20.80;64.60
67141;DHT22;54058;52.010;5.546;2023-05-14T09:54:56;20.80;64.50
67141;DHT22;54058;52.010;5.546;2023-05-14T09:57:22;20.90;64.40
67141;DHT22;54058;52.010;5.546;2023-05-14T09:59:47;21.00;64.30
67141;DHT22;54058;52.010;5.546;2023-05-14T10:02:35;21.20;64.10
67141;DHT22;54058;52.010;5.546;2023-05-14T10:05:03;21.30;63.00
67141;DHT22;54058;52.010;5.546;2023-05-14T10:07:45;21.40;63.60
67141;DHT22;54058;52.010;5.546;2023-05-14T10:10:17;21.60;63.00
67141;DHT22;54058;52.010;5.546;2023-05-14T10:12:49;21.40;62.70
67141;DHT22;54058;52.010;5.546;2023-05-14T10:15:19;21.50;63.10
67141;DHT22;54058;52.010;5.546;2023-05-14T10:17:48;21.60;62.00
67141;DHT22;54058;52.010;5.546;2023-05-14T10:20:16;21.70;63.00
67141;DHT22;54058;52.010;5.546;2023-05-14T10:22:42;21.70;63.00
67141;DHT22;54058;52.010;5.546;2023-05-14T10:25:08;21.70;63.20
67141;DHT22;54058;52.010;5.546;2023-05-14T10:27:35;21.80;63.30
67141;DHT22;54058;52.010;5.546;2023-05-14T10:30:05;21.90;63.30
67141;DHT22;54058;52.010;5.546;2023-05-14T10:32:34;22.00;62.70
67141;DHT22;54058;52.010;5.546;2023-05-14T10:35:18;22.10;63.00
67141;DHT22;54058;52.010;5.546;2023-05-14T10:37:45;22.30;61.30
67141;DHT22;54058;52.010;5.546;2023-05-14T10:40:12;22.40;62.10
67141;DHT22;54058;52.010;5.546;2023-05-14T10:42:38;22.20;61.90
67141;DHT22;54058;52.010;5.546;2023-05-14T10:45:07;22.20;62.20
67141;DHT22;54058;52.010;5.546;2023-05-14T10:47:35;22.10;62.20
67141;DHT22;54058;52.010;5.546;2023-05-14T10:50:05;22.10;62.10
67141;DHT22;54058;52.010;5.546;2023-05-14T10:52:32;22.30;62.30
67141;DHT22;54058;52.010;5.546;2023-05-14T10:55:01;22.40;62.10
67141;DHT22;54058;52.010;5.546;2023-05-14T10:57:29;22.50;61.70
67141;DHT22;54058;52.010;5.546;2023-05-14T10:59:56;22.40;61.40
67141;DHT22;54058;52.010;5.546;2023-05-14T11:04:56;22.30;61.40
67141;DHT22;54058;52.010;5.546;2023-05-14T11:07:27;22.30;60.60
67141;DHT22;54058;52.010;5.546;2023-05-14T11:12:32;22.50;61.00
67141;DHT22;54058;52.010;5.546;2023-05-14T11:14:59;22.50;60.80
67141;DHT22;54058;52.010;5.546;2023-05-14T11:17:26;22.70;60.60
67141;DHT22;54058;52.010;5.546;2023-05-14T11:19:53;22.80;60.00
67141;DHT22;54058;52.010;5.546;2023-05-14T11:22:19;22.90;59.90
67141;DHT22;54058;52.010;5.546;2023-05-14T11:24:45;22.80;60.30
67141;DHT22;54058;52.010;5.546;2023-05-14T11:27:10;22.80;60.10
67141;DHT22;54058;52.010;5.546;2023-05-14T11:29:37;22.90;59.60
67141;DHT22;54058;52.010;5.546;2023-05-14T11:32:06;22.80;59.90
67141;DHT22;54058;52.010;5.546;2023-05-14T11:34:32;22.90;59.10
67141;DHT22;54058;52.010;5.546;2023-05-14T11:37:02;23.00;59.90
67141;DHT22;54058;52.010;5.546;2023-05-14T11:39:29;23.20;59.50
67141;DHT22;54058;52.010;5.546;2023-05-14T11:41:56;23.40;59.60
67141;DHT22;54058;52.010;5.546;2023-05-14T11:44:23;23.30;58.60
67141;DHT22;54058;52.010;5.546;2023-05-14T11:46:55;23.20;58.70
67141;DHT22;54058;52.010;5.546;2023-05-14T11:49:25;23.20;58.10
67141;DHT22;54058;52.010;5.546;2023-05-14T11:52:00;23.30;58.30
67141;DHT22;54058;52.010;5.546;2023-05-14T11:54:27;23.50;58.70
67141;DHT22;54058;52.010;5.546;2023-05-14T11:56:57;23.60;58.10
67141;DHT22;54058;52.010;5.546;2023-05-14T11:59:24;23.50;58.30
67141;DHT22;54058;52.010;5.546;2023-05-14T12:01:50;23.70;58.60
67141;DHT22;54058;52.010;5.546;2023-05-14T12:04:18;23.70;56.00
67141;DHT22;54058;52.010;5.546;2023-05-14T12:06:49;23.50;58.80
67141;DHT22;54058;52.010;5.546;2023-05-14T12:09:18;23.40;59.00
67141;DHT22;54058;52.010;5.546;2023-05-14T12:11:44;23.20;58.10
67141;DHT22;54058;52.010;5.546;2023-05-14T12:14:21;23.10;58.50
67141;DHT22;54058;52.010;5.546;2023-05-14T12:16:47;23.10;58.40
67141;DHT22;54058;52.010;5.546;2023-05-14T12:19:15;23.00;58.80
67141;DHT22;54058;52.010;5.546;2023-05-14T12:21:45;23.00;59.00
67141;DHT22;54058;52.010;5.546;2023-05-14T12:24:14;23.00;58.00
67141;DHT22;54058;52.010;5.546;2023-05-14T12:26:43;22.80;58.50
67141;DHT22;54058;52.010;5.546;2023-05-14T12:29:12;22.90;58.30
67141;DHT22;54058;52.010;5.546;2023-05-14T12:31:38;23.10;58.10
67141;DHT22;54058;52.010;5.546;2023-05-14T12:34:09;23.30;57.60
67141;DHT22;54058;52.010;5.546;2023-05-14T12:36:34;23.40;57.50
67141;DHT22;54058;52.010;5.546;2023-05-14T12:39:01;23.40;57.60
67141;DHT22;54058;52.010;5.546;2023-05-14T12:41:29;23.50;57.40
67141;DHT22;54058;52.010;5.546;2023-05-14T12:43:54;23.70;56.90
67141;DHT22;54058;52.010;5.546;2023-05-14T12:46:20;23.60;56.70
67141;DHT22;54058;52.010;5.546;2023-05-14T12:48:46;23.70;56.30
67141;DHT22;54058;52.010;5.546;2023-05-14T12:51:11;23.50;56.60
67141;DHT22;54058;52.010;5.546;2023-05-14T12:53:37;23.50;57.10
67141;DHT22;54058;52.010;5.546;2023-05-14T12:56:03;23.70;57.20
67141;DHT22;54058;52.010;5.546;2023-05-14T12:58:28;23.60;56.30
67141;DHT22;54058;52.010;5.546;2023-05-14T13:00:54;23.70;56.50
67141;DHT22;54058;52.010;5.546;2023-05-14T13:03:20;23.80;56.30
67141;DHT22;54058;52.010;5.546;2023-05-14T13:05:46;23.90;56.00
67141;DHT22;54058;52.010;5.546;2023-05-14T13:08:12;24.00;56.20
67141;DHT22;54058;52.010;5.546;2023-05-14T13:10:42;24.00;55.50
67141;DHT22;54058;52.010;5.546;2023-05-14T13:13:08;24.00;56.00
67141;DHT22;54058;52.010;5.546;2023-05-14T13:15:35;24.00;54.90
67141;DHT22;54058;52.010;5.546;2023-05-14T13:18:00;23.90;54.90
67141;DHT22;54058;52.010;5.546;2023-05-14T13:20:26;23.70;54.80
67141;DHT22;54058;52.010;5.546;2023-05-14T13:22:52;23.70;55.60
67141;DHT22;54058;52.010;5.546;2023-05-14T13:25:17;23.70;55.70
67141;DHT22;54058;52.010;5.546;2023-05-14T13:27:43;23.70;54.80
67141;DHT22;54058;52.010;5.546;2023-05-14T13:30:09;23.60;55.00
67141;DHT22;54058;52.010;5.546;2023-05-14T13:32:34;23.70;56.20
67141;DHT22;54058;52.010;5.546;2023-05-14T13:35:00;23.80;55.30
67141;DHT22;54058;52.010;5.546;2023-05-14T13:37:26;23.80;54.90
67141;DHT22;54058;52.010;5.546;2023-05-14T13:39:51;23.90;55.10
67141;DHT22;54058;52.010;5.546;2023-05-14T13:42:17;24.00;54.80
67141;DHT22;54058;52.010;5.546;2023-05-14T13:44:42;24.10;55.00
67141;DHT22;54058;52.010;5.546;2023-05-14T13:47:11;24.00;54.70
67141;DHT22;54058;52.010;5.546;2023-05-14T13:49:37;24.00;54.40
67141;DHT22;54058;52.010;5.546;2023-05-14T13:52:06;24.10;54.20
67141;DHT22;54058;52.010;5.546;2023-05-14T13:54:32;24.10;54.20
67141;DHT22;54058;52.010;5.546;2023-05-14T13:56:57;24.00;54.90
67141;DHT22;54058;52.010;5.546;2023-05-14T13:59:23;24.00;54.40
67141;DHT22;54058;52.010;5.546;2023-05-14T14:01:48;23.90;53.40
67141;DHT22;54058;52.010;5.546;2023-05-14T14:04:15;23.90;53.90
67141;DHT22;54058;52.010;5.546;2023-05-14T14:06:42;23.80;53.80
67141;DHT22;54058;52.010;5.546;2023-05-14T14:09:08;23.80;54.30
67141;DHT22;54058;52.010;5.546;2023-05-14T14:11:34;23.70;54.00
67141;DHT22;54058;52.010;5.546;2023-05-14T14:13:59;23.50;54.20
67141;DHT22;54058;52.010;5.546;2023-05-14T14:16:25;23.40;54.40
67141;DHT22;54058;52.010;5.546;2023-05-14T14:18:51;23.30;54.00
67141;DHT22;54058;52.010;5.546;2023-05-14T14:21:16;23.30;54.40
67141;DHT22;54058;52.010;5.546;2023-05-14T14:23:46;23.40;54.60
67141;DHT22;54058;52.010;5.546;2023-05-14T14:26:11;23.50;54.20
67141;DHT22;54058;52.010;5.546;2023-05-14T14:28:37;23.50;54.30
67141;DHT22;54058;52.010;5.546;2023-05-14T14:31:04;23.40;54.80
67141;DHT22;54058;52.010;5.546;2023-05-14T14:33:30;23.40;55.10
67141;DHT22;54058;52.010;5.546;2023-05-14T14:35:56;23.40;54.80
67141;DHT22;54058;52.010;5.546;2023-05-14T14:38:21;23.40;54.40
67141;DHT22;54058;52.010;5.546;2023-05-14T14:40:47;23.20;54.20
67141;DHT22;54058;52.010;5.546;2023-05-14T14:43:12;23.10;54.40
67141;DHT22;54058;52.010;5.546;2023-05-14T14:45:38;23.00;54.60
67141;DHT22;54058;52.010;5.546;2023-05-14T14:50:54;23.00;54.60
67141;DHT22;54058;52.010;5.546;2023-05-14T14:53:21;22.90;54.60
67141;DHT22;54058;52.010;5.546;2023-05-14T14:55:49;22.80;54.70
67141;DHT22;54058;52.010;5.546;2023-05-14T14:58:16;22.70;54.00
67141;DHT22;54058;52.010;5.546;2023-05-14T15:00:42;22.70;55.20
67141;DHT22;54058;52.010;5.546;2023-05-14T15:03:08;22.80;55.40
67141;DHT22;54058;52.010;5.546;2023-05-14T15:05:34;22.80;55.30
67141;DHT22;54058;52.010;5.546;2023-05-14T15:08:00;22.70;55.20
67141;DHT22;54058;52.010;5.546;2023-05-14T15:10:27;22.50;55.50
67141;DHT22;54058;52.010;5.546;2023-05-14T15:12:57;22.50;55.70
67141;DHT22;54058;52.010;5.546;2023-05-14T15:15:23;22.40;55.70
67141;DHT22;54058;52.010;5.546;2023-05-14T15:17:49;22.30;56.10
67141;DHT22;54058;52.010;5.546;2023-05-14T15:20:15;22.20;55.90
67141;DHT22;54058;52.010;5.546;2023-05-14T15:22:41;22.20;56.00
67141;DHT22;54058;52.010;5.546;2023-05-14T15:25:07;22.20;55.90
67141;DHT22;54058;52.010;5.546;2023-05-14T15:27:33;22.10;55.90
67141;DHT22;54058;52.010;5.546;2023-05-14T15:29:59;22.20;55.80
67141;DHT22;54058;52.010;5.546;2023-05-14T15:32:24;22.10;55.90
67141;DHT22;54058;52.010;5.546;2023-05-14T15:34:52;22.10;56.10
67141;DHT22;54058;52.010;5.546;2023-05-14T15:37:18;22.10;56.10